sensor_id;sensor_type;location;lat;lon;timestamp;P1;durP1;ratioP1;P2;durP2;ratioP2
81150;SDS011;70629;-26.026;27.976;2024-03-25T00:00:06;2.75;;;1.33;;
81150;SDS011;70629;-26.026;27.976;2024-03-25T00:00:51;3.17;;;1.40;;
81150;SDS011;70629;-26.026;27.976;2024-03-25T00:01:29;3.08;;;1.33;;
81150;SDS011;70629;-26.026;27.976;2024-03-25T00:02:07;3.17;;;1.20;;
81150;SDS011;70629;-26.026;27.976;2024-03-25T00:02:46;3.42;;;1.58;;
81150;SDS011;70629;-26.026;27.976;2024-03-25T00:03:25;3.15;;;1.15;;
81150;SDS011;70629;-26.026;27.976;2024-03-25T00:04:03;3.92;;;1.55;;
81150;SDS011;70629;-26.026;27.976;2024-03-25T00:04:41;3.38;;;1.70;;
81150;SDS011;70629;-26.026;27.976;2024-03-25T00:05:19;3.85;;;1.27;;
81150;SDS011;70629;-26.026;27.976;2024-03-25T00:06:00;2.92;;;1.10;;
81150;SDS011;70629;-26.026;27.976;2024-03-25T00:06:38;3.08;;;1.27;;
81150;SDS011;70629;-26.026;27.976;2024-03-25T00:07:16;3.67;;;1.10;;
81150;SDS011;70629;-26.026;27.976;2024-03-25T00:07:54;5.70;;;1.70;;
81150;SDS011;70629;-26.026;27.976;2024-03-25T00:08:33;6.13;;;1.20;;
81150;SDS011;70629;-26.026;27.976;2024-03-25T00:09:11;2.90;;;1.20;;
81150;SDS011;70629;-26.026;27.976;2024-03-25T00:09:51;3.92;;;1.45;;
81150;SDS011;70629;-26.026;27.976;2024-03-25T00:10:33;3.55;;;1.27;;
81150;SDS011;70629;-26.026;27.976;2024-03-25T00:11:11;2.40;;;1.15;;
81150;SDS011;70629;-26.026;27.976;2024-03-25T00:11:49;5.07;;;1.30;;
81150;SDS011;70629;-26.026;27.976;2024-03-25T00:12:31;3.83;;;1.58;;
81150;SDS011;70629;-26.026;27.976;2024-03-25T00:13:10;4.13;;;1.20;;
81150;SDS011;70629;-26.026;27.976;2024-03-25T00:13:49;2.83;;;1.52;;
81150;SDS011;70629;-26.026;27.976;2024-03-25T00:14:27;2.85;;;1.08;;
81150;SDS011;70629;-26.026;27.976;2024-03-25T00:15:05;2.97;;;1.40;;
81150;SDS011;70629;-26.026;27.976;2024-03-25T00:15:44;5.05;;;1.10;;
81150;SDS011;70629;-26.026;27.976;2024-03-25T00:16:23;4.22;;;1.02;;
81150;SDS011;70629;-26.026;27.976;2024-03-25T00:17:01;2.50;;;1.08;;
81150;SDS011;70629;-26.026;27.976;2024-03-25T00:17:39;2.45;;;1.17;;
81150;SDS011;70629;-26.026;27.976;2024-03-25T00:18:19;3.35;;;1.13;;
81150;SDS011;70629;-26.026;27.976;2024-03-25T00:18:57;3.08;;;1.00;;
81150;SDS011;70629;-26.026;27.976;2024-03-25T00:19:35;2.92;;;1.15;;
81150;SDS011;70629;-26.026;27.976;2024-03-25T00:20:14;2.60;;;1.20;;
81150;SDS011;70629;-26.026;27.976;2024-03-25T00:20:53;3.28;;;1.13;;
81150;SDS011;70629;-26.026;27.976;2024-03-25T00:21:31;4.07;;;1.05;;
81150;SDS011;70629;-26.026;27.976;2024-03-25T00:22:09;3.17;;;1.17;;
81150;SDS011;70629;-26.026;27.976;2024-03-25T00:22:47;2.88;;;1.20;;
81150;SDS011;70629;-26.026;27.976;2024-03-25T00:23:25;3.50;;;1.52;;
81150;SDS011;70629;-26.026;27.976;2024-03-25T00:24:05;4.57;;;1.40;;
81150;SDS011;70629;-26.026;27.976;2024-03-25T00:24:43;3.40;;;1.30;;
81150;SDS011;70629;-26.026;27.976;2024-03-25T00:25:21;2.50;;;1.20;;
81150;SDS011;70629;-26.026;27.976;2024-03-25T00:25:59;3.83;;;1.88;;
81150;SDS011;70629;-26.026;27.976;2024-03-25T00:26:38;2.28;;;1.10;;
81150;SDS011;70629;-26.026;27.976;2024-03-25T00:27:16;3.20;;;1.20;;
81150;SDS011;70629;-26.026;27.976;2024-03-25T00:27:55;4.88;;;1.20;;
81150;SDS011;70629;-26.026;27.976;2024-03-25T00:28:34;3.70;;;1.20;;
81150;SDS011;70629;-26.026;27.976;2024-03-25T00:29:51;3.65;;;1.23;;
81150;SDS011;70629;-26.026;27.976;2024-03-25T00:30:29;4.50;;;1.33;;
81150;SDS011;70629;-26.026;27.976;2024-03-25T00:31:07;3.05;;;1.35;;
81150;SDS011;70629;-26.026;27.976;2024-03-25T00:31:46;2.72;;;1.30;;
81150;SDS011;70629;-26.026;27.976;2024-03-25T00:32:24;2.58;;;1.17;;
81150;SDS011;70629;-26.026;27.976;2024-03-25T00:33:02;2.63;;;1.35;;
81150;SDS011;70629;-26.026;27.976;2024-03-25T00:33:41;5.13;;;1.45;;
81150;SDS011;70629;-26.026;27.976;2024-03-25T00:34:19;3.45;;;1.90;;
81150;SDS011;70629;-26.026;27.976;2024-03-25T00:34:57;3.30;;;1.30;;
81150;SDS011;70629;-26.026;27.976;2024-03-25T00:35:35;3.85;;;1.40;;
81150;SDS011;70629;-26.026;27.976;2024-03-25T00:36:13;4.25;;;1.50;;
81150;SDS011;70629;-26.026;27.976;2024-03-25T00:36:52;4.78;;;1.30;;
81150;SDS011;70629;-26.026;27.976;2024-03-25T00:37:30;3.83;;;1.20;;
81150;SDS011;70629;-26.026;27.976;2024-03-25T00:38:08;3.05;;;1.52;;
81150;SDS011;70629;-26.026;27.976;2024-03-25T00:38:46;3.53;;;1.70;;
81150;SDS011;70629;-26.026;27.976;2024-03-25T00:39:25;3.25;;;1.52;;
81150;SDS011;70629;-26.026;27.976;2024-03-25T00:40:04;3.00;;;1.65;;
81150;SDS011;70629;-26.026;27.976;2024-03-25T00:40:44;4.03;;;1.60;;
81150;SDS011;70629;-26.026;27.976;2024-03-25T00:41:22;3.20;;;1.38;;
81150;SDS011;70629;-26.026;27.976;2024-03-25T00:42:01;3.38;;;1.50;;
81150;SDS011;70629;-26.026;27.976;2024-03-25T00:42:39;4.28;;;2.10;;
81150;SDS011;70629;-26.026;27.976;2024-03-25T00:43:17;3.20;;;2.03;;
81150;SDS011;70629;-26.026;27.976;2024-03-25T00:43:55;4.35;;;1.95;;
81150;SDS011;70629;-26.026;27.976;2024-03-25T00:44:33;2.90;;;1.77;;
81150;SDS011;70629;-26.026;27.976;2024-03-25T00:45:12;3.97;;;1.88;;
81150;SDS011;70629;-26.026;27.976;2024-03-25T00:45:50;3.30;;;2.00;;
81150;SDS011;70629;-26.026;27.976;2024-03-25T00:46:28;4.10;;;1.98;;
81150;SDS011;70629;-26.026;27.976;2024-03-25T00:47:07;4.32;;;1.95;;
81150;SDS011;70629;-26.026;27.976;2024-03-25T00:47:45;4.95;;;2.25;;
81150;SDS011;70629;-26.026;27.976;2024-03-25T00:48:24;4.65;;;2.35;;
81150;SDS011;70629;-26.026;27.976;2024-03-25T00:49:02;3.83;;;2.13;;
81150;SDS011;70629;-26.026;27.976;2024-03-25T00:49:40;5.63;;;2.40;;
81150;SDS011;70629;-26.026;27.976;2024-03-25T00:50:19;3.60;;;2.13;;
81150;SDS011;70629;-26.026;27.976;2024-03-25T00:50:57;5.38;;;2.72;;
81150;SDS011;70629;-26.026;27.976;2024-03-25T00:51:36;6.10;;;2.65;;
81150;SDS011;70629;-26.026;27.976;2024-03-25T00:52:14;5.20;;;2.70;;
81150;SDS011;70629;-26.026;27.976;2024-03-25T00:52:53;4.85;;;2.65;;
81150;SDS011;70629;-26.026;27.976;2024-03-25T00:53:31;4.90;;;2.95;;
81150;SDS011;70629;-26.026;27.976;2024-03-25T00:54:09;6.18;;;2.88;;
81150;SDS011;70629;-26.026;27.976;2024-03-25T00:54:48;6.03;;;3.05;;
81150;SDS011;70629;-26.026;27.976;2024-03-25T00:55:26;4.43;;;2.80;;
81150;SDS011;70629;-26.026;27.976;2024-03-25T00:56:04;5.57;;;3.00;;
81150;SDS011;70629;-26.026;27.976;2024-03-25T00:56:43;4.75;;;3.45;;
81150;SDS011;70629;-26.026;27.976;2024-03-25T00:57:22;4.93;;;3.30;;
81150;SDS011;70629;-26.026;27.976;2024-03-25T00:58:00;5.20;;;3.67;;
81150;SDS011;70629;-26.026;27.976;2024-03-25T00:58:41;5.03;;;3.10;;
81150;SDS011;70629;-26.026;27.976;2024-03-25T00:59:19;8.27;;;4.43;;
81150;SDS011;70629;-26.026;27.976;2024-03-25T00:59:57;6.00;;;3.60;;
81150;SDS011;70629;-26.026;27.976;2024-03-25T01:00:36;5.97;;;3.63;;
81150;SDS011;70629;-26.026;27.976;2024-03-25T01:01:14;6.45;;;3.55;;
81150;SDS011;70629;-26.026;27.976;2024-03-25T01:01:52;4.85;;;3.38;;
81150;SDS011;70629;-26.026;27.976;2024-03-25T01:02:31;6.32;;;3.75;;
81150;SDS011;70629;-26.026;27.976;2024-03-25T01:03:09;5.97;;;4.05;;
81150;SDS011;70629;-26.026;27.976;2024-03-25T01:03:47;7.70;;;4.45;;
81150;SDS011;70629;-26.026;27.976;2024-03-25T01:04:25;6.72;;;4.55;;
81150;SDS011;70629;-26.026;27.976;2024-03-25T01:05:04;7.38;;;4.20;;
81150;SDS011;70629;-26.026;27.976;2024-03-25T01:05:43;6.03;;;4.03;;
81150;SDS011;70629;-26.026;27.976;2024-03-25T01:06:21;6.18;;;3.75;;
81150;SDS011;70629;-26.026;27.976;2024-03-25T01:06:59;6.38;;;4.07;;
81150;SDS011;70629;-26.026;27.976;2024-03-25T01:07:40;5.50;;;4.47;;
81150;SDS011;70629;-26.026;27.976;2024-03-25T01:08:19;7.20;;;4.68;;
81150;SDS011;70629;-26.026;27.976;2024-03-25T01:08:57;6.60;;;4.28;;
81150;SDS011;70629;-26.026;27.976;2024-03-25T01:09:35;9.48;;;4.68;;
81150;SDS011;70629;-26.026;27.976;2024-03-25T01:10:13;5.63;;;4.03;;
81150;SDS011;70629;-26.026;27.976;2024-03-25T01:10:53;6.10;;;4.15;;
81150;SDS011;70629;-26.026;27.976;2024-03-25T01:11:31;5.32;;;4.00;;
81150;SDS011;70629;-26.026;27.976;2024-03-25T01:12:09;5.70;;;3.80;;
81150;SDS011;70629;-26.026;27.976;2024-03-25T01:12:47;6.50;;;4.82;;
81150;SDS011;70629;-26.026;27.976;2024-03-25T01:13:25;7.70;;;5.32;;
81150;SDS011;70629;-26.026;27.976;2024-03-25T01:14:04;8.45;;;4.63;;
81150;SDS011;70629;-26.026;27.976;2024-03-25T01:14:42;6.57;;;4.47;;
81150;SDS011;70629;-26.026;27.976;2024-03-25T01:15:20;6.57;;;4.25;;
81150;SDS011;70629;-26.026;27.976;2024-03-25T01:16:37;6.32;;;4.47;;
81150;SDS011;70629;-26.026;27.976;2024-03-25T01:17:15;6.68;;;4.75;;
81150;SDS011;70629;-26.026;27.976;2024-03-25T01:17:53;8.32;;;5.47;;
81150;SDS011;70629;-26.026;27.976;2024-03-25T01:18:31;7.00;;;4.97;;
81150;SDS011;70629;-26.026;27.976;2024-03-25T01:19:10;7.63;;;4.88;;
81150;SDS011;70629;-26.026;27.976;2024-03-25T01:19:48;7.45;;;5.28;;
81150;SDS011;70629;-26.026;27.976;2024-03-25T01:20:26;7.35;;;4.70;;
81150;SDS011;70629;-26.026;27.976;2024-03-25T01:21:05;9.40;;;5.50;;
81150;SDS011;70629;-26.026;27.976;2024-03-25T01:21:43;7.70;;;5.07;;
81150;SDS011;70629;-26.026;27.976;2024-03-25T01:22:21;7.43;;;5.65;;
81150;SDS011;70629;-26.026;27.976;2024-03-25T01:23:00;8.20;;;5.80;;
81150;SDS011;70629;-26.026;27.976;2024-03-25T01:23:38;7.07;;;5.57;;
81150;SDS011;70629;-26.026;27.976;2024-03-25T01:24:16;7.72;;;5.75;;
81150;SDS011;70629;-26.026;27.976;2024-03-25T01:24:54;8.68;;;5.38;;
81150;SDS011;70629;-26.026;27.976;2024-03-25T01:25:32;10.15;;;5.75;;
81150;SDS011;70629;-26.026;27.976;2024-03-25T01:26:10;9.60;;;6.38;;
81150;SDS011;70629;-26.026;27.976;2024-03-25T01:26:48;7.20;;;5.47;;
81150;SDS011;70629;-26.026;27.976;2024-03-25T01:27:27;9.48;;;5.75;;
81150;SDS011;70629;-26.026;27.976;2024-03-25T01:28:05;7.45;;;5.32;;
81150;SDS011;70629;-26.026;27.976;2024-03-25T01:28:43;8.95;;;6.10;;
81150;SDS011;70629;-26.026;27.976;2024-03-25T01:29:21;7.68;;;5.82;;
81150;SDS011;70629;-26.026;27.976;2024-03-25T01:29:59;8.45;;;7.10;;
81150;SDS011;70629;-26.026;27.976;2024-03-25T01:30:40;8.95;;;6.90;;
81150;SDS011;70629;-26.026;27.976;2024-03-25T01:31:19;8.63;;;6.13;;
81150;SDS011;70629;-26.026;27.976;2024-03-25T01:31:57;9.85;;;7.00;;
81150;SDS011;70629;-26.026;27.976;2024-03-25T01:32:36;10.63;;;7.68;;
81150;SDS011;70629;-26.026;27.976;2024-03-25T01:33:14;10.18;;;7.85;;
81150;SDS011;70629;-26.026;27.976;2024-03-25T01:33:52;12.27;;;7.82;;
81150;SDS011;70629;-26.026;27.976;2024-03-25T01:34:31;10.68;;;7.68;;
81150;SDS011;70629;-26.026;27.976;2024-03-25T01:35:09;11.45;;;7.65;;
81150;SDS011;70629;-26.026;27.976;2024-03-25T01:35:48;13.43;;;8.95;;
81150;SDS011;70629;-26.026;27.976;2024-03-25T01:36:26;14.13;;;8.52;;
81150;SDS011;70629;-26.026;27.976;2024-03-25T01:37:04;12.18;;;8.40;;
81150;SDS011;70629;-26.026;27.976;2024-03-25T01:37:42;12.80;;;8.52;;
81150;SDS011;70629;-26.026;27.976;2024-03-25T01:38:21;12.75;;;8.73;;
81150;SDS011;70629;-26.026;27.976;2024-03-25T01:38:59;11.57;;;7.78;;
81150;SDS011;70629;-26.026;27.976;2024-03-25T01:39:38;13.63;;;8.70;;
81150;SDS011;70629;-26.026;27.976;2024-03-25T01:40:16;12.55;;;8.02;;
81150;SDS011;70629;-26.026;27.976;2024-03-25T01:40:54;11.38;;;8.32;;
81150;SDS011;70629;-26.026;27.976;2024-03-25T01:41:34;15.35;;;9.02;;
81150;SDS011;70629;-26.026;27.976;2024-03-25T01:42:13;11.68;;;8.90;;
81150;SDS011;70629;-26.026;27.976;2024-03-25T01:42:57;11.98;;;8.82;;
81150;SDS011;70629;-26.026;27.976;2024-03-25T01:43:37;12.45;;;8.05;;
81150;SDS011;70629;-26.026;27.976;2024-03-25T01:44:16;12.23;;;8.02;;
81150;SDS011;70629;-26.026;27.976;2024-03-25T01:44:54;12.00;;;8.45;;
81150;SDS011;70629;-26.026;27.976;2024-03-25T01:45:33;11.35;;;8.40;;
81150;SDS011;70629;-26.026;27.976;2024-03-25T01:46:12;13.98;;;8.43;;
81150;SDS011;70629;-26.026;27.976;2024-03-25T01:46:52;13.00;;;8.57;;
81150;SDS011;70629;-26.026;27.976;2024-03-25T01:47:32;11.25;;;9.18;;
81150;SDS011;70629;-26.026;27.976;2024-03-25T01:48:12;13.77;;;9.10;;
81150;SDS011;70629;-26.026;27.976;2024-03-25T01:48:51;13.52;;;8.48;;
81150;SDS011;70629;-26.026;27.976;2024-03-25T01:49:30;13.13;;;8.20;;
81150;SDS011;70629;-26.026;27.976;2024-03-25T01:50:47;13.23;;;8.68;;
81150;SDS011;70629;-26.026;27.976;2024-03-25T01:51:25;14.65;;;8.13;;
81150;SDS011;70629;-26.026;27.976;2024-03-25T01:52:04;12.73;;;8.85;;
81150;SDS011;70629;-26.026;27.976;2024-03-25T01:52:43;10.60;;;7.90;;
81150;SDS011;70629;-26.026;27.976;2024-03-25T01:53:21;12.52;;;8.32;;
81150;SDS011;70629;-26.026;27.976;2024-03-25T01:54:01;12.65;;;8.15;;
81150;SDS011;70629;-26.026;27.976;2024-03-25T01:54:40;11.43;;;7.95;;
81150;SDS011;70629;-26.026;27.976;2024-03-25T01:55:20;10.80;;;7.43;;
81150;SDS011;70629;-26.026;27.976;2024-03-25T01:56:02;9.48;;;7.20;;
81150;SDS011;70629;-26.026;27.976;2024-03-25T01:56:42;11.80;;;7.55;;
81150;SDS011;70629;-26.026;27.976;2024-03-25T01:57:23;12.32;;;7.75;;
81150;SDS011;70629;-26.026;27.976;2024-03-25T01:58:04;10.93;;;7.35;;
81150;SDS011;70629;-26.026;27.976;2024-03-25T01:58:43;10.48;;;6.85;;
81150;SDS011;70629;-26.026;27.976;2024-03-25T01:59:22;10.07;;;6.30;;
81150;SDS011;70629;-26.026;27.976;2024-03-25T02:00:02;9.35;;;6.28;;
81150;SDS011;70629;-26.026;27.976;2024-03-25T02:00:45;8.90;;;6.00;;
81150;SDS011;70629;-26.026;27.976;2024-03-25T02:02:02;11.23;;;6.45;;
81150;SDS011;70629;-26.026;27.976;2024-03-25T02:02:41;8.88;;;5.53;;
81150;SDS011;70629;-26.026;27.976;2024-03-25T02:03:21;7.57;;;5.43;;
81150;SDS011;70629;-26.026;27.976;2024-03-25T02:04:00;7.55;;;5.53;;
81150;SDS011;70629;-26.026;27.976;2024-03-25T02:04:39;9.23;;;6.75;;
81150;SDS011;70629;-26.026;27.976;2024-03-25T02:05:19;7.53;;;5.93;;
81150;SDS011;70629;-26.026;27.976;2024-03-25T02:06:38;9.05;;;5.35;;
81150;SDS011;70629;-26.026;27.976;2024-03-25T02:07:19;7.47;;;5.57;;
81150;SDS011;70629;-26.026;27.976;2024-03-25T02:07:58;7.80;;;6.13;;
81150;SDS011;70629;-26.026;27.976;2024-03-25T02:09:15;7.15;;;5.43;;
81150;SDS011;70629;-26.026;27.976;2024-03-25T02:09:54;6.72;;;5.18;;
81150;SDS011;70629;-26.026;27.976;2024-03-25T02:10:34;7.60;;;5.30;;
81150;SDS011;70629;-26.026;27.976;2024-03-25T02:11:13;7.03;;;5.15;;
81150;SDS011;70629;-26.026;27.976;2024-03-25T02:11:52;7.82;;;5.35;;
81150;SDS011;70629;-26.026;27.976;2024-03-25T02:12:31;8.05;;;5.45;;
81150;SDS011;70629;-26.026;27.976;2024-03-25T02:13:10;8.32;;;4.90;;
81150;SDS011;70629;-26.026;27.976;2024-03-25T02:13:49;6.78;;;5.15;;
81150;SDS011;70629;-26.026;27.976;2024-03-25T02:14:28;7.30;;;5.38;;
81150;SDS011;70629;-26.026;27.976;2024-03-25T02:15:07;7.30;;;5.60;;
81150;SDS011;70629;-26.026;27.976;2024-03-25T02:15:46;7.45;;;5.15;;
81150;SDS011;70629;-26.026;27.976;2024-03-25T02:16:28;7.43;;;4.68;;
81150;SDS011;70629;-26.026;27.976;2024-03-25T02:17:06;7.03;;;5.25;;
81150;SDS011;70629;-26.026;27.976;2024-03-25T02:17:46;6.43;;;4.88;;
81150;SDS011;70629;-26.026;27.976;2024-03-25T02:18:24;5.97;;;4.60;;
81150;SDS011;70629;-26.026;27.976;2024-03-25T02:19:02;5.97;;;3.58;;
81150;SDS011;70629;-26.026;27.976;2024-03-25T02:19:41;6.68;;;3.97;;
81150;SDS011;70629;-26.026;27.976;2024-03-25T02:20:19;5.72;;;3.55;;
81150;SDS011;70629;-26.026;27.976;2024-03-25T02:20:58;5.65;;;3.25;;
81150;SDS011;70629;-26.026;27.976;2024-03-25T02:21:37;5.82;;;3.70;;
81150;SDS011;70629;-26.026;27.976;2024-03-25T02:22:15;5.10;;;3.65;;
81150;SDS011;70629;-26.026;27.976;2024-03-25T02:22:53;5.47;;;3.30;;
81150;SDS011;70629;-26.026;27.976;2024-03-25T02:23:32;5.93;;;3.25;;
81150;SDS011;70629;-26.026;27.976;2024-03-25T02:24:14;5.60;;;3.53;;
81150;SDS011;70629;-26.026;27.976;2024-03-25T02:24:57;5.28;;;3.55;;
81150;SDS011;70629;-26.026;27.976;2024-03-25T02:25:37;6.10;;;3.53;;
81150;SDS011;70629;-26.026;27.976;2024-03-25T02:26:16;4.70;;;3.00;;
81150;SDS011;70629;-26.026;27.976;2024-03-25T02:26:54;5.15;;;3.20;;
81150;SDS011;70629;-26.026;27.976;2024-03-25T02:27:33;6.05;;;3.42;;
81150;SDS011;70629;-26.026;27.976;2024-03-25T02:28:49;5.45;;;3.20;;
81150;SDS011;70629;-26.026;27.976;2024-03-25T02:29:36;6.07;;;3.22;;
81150;SDS011;70629;-26.026;27.976;2024-03-25T02:30:14;4.75;;;2.85;;
81150;SDS011;70629;-26.026;27.976;2024-03-25T02:30:54;5.13;;;3.13;;
81150;SDS011;70629;-26.026;27.976;2024-03-25T02:31:32;4.80;;;3.33;;
81150;SDS011;70629;-26.026;27.976;2024-03-25T02:32:10;4.35;;;3.05;;
81150;SDS011;70629;-26.026;27.976;2024-03-25T02:32:49;4.20;;;2.72;;
81150;SDS011;70629;-26.026;27.976;2024-03-25T02:33:28;4.57;;;2.35;;
81150;SDS011;70629;-26.026;27.976;2024-03-25T02:34:06;5.97;;;2.95;;
81150;SDS011;70629;-26.026;27.976;2024-03-25T02:34:45;5.63;;;3.08;;
81150;SDS011;70629;-26.026;27.976;2024-03-25T02:35:26;5.72;;;3.03;;
81150;SDS011;70629;-26.026;27.976;2024-03-25T02:36:05;5.50;;;2.97;;
81150;SDS011;70629;-26.026;27.976;2024-03-25T02:37:21;4.25;;;2.28;;
81150;SDS011;70629;-26.026;27.976;2024-03-25T02:38:00;4.72;;;2.40;;
81150;SDS011;70629;-26.026;27.976;2024-03-25T02:39:16;5.55;;;2.20;;
81150;SDS011;70629;-26.026;27.976;2024-03-25T02:39:55;4.57;;;2.38;;
81150;SDS011;70629;-26.026;27.976;2024-03-25T02:40:36;3.80;;;2.15;;
81150;SDS011;70629;-26.026;27.976;2024-03-25T02:41:15;5.38;;;2.35;;
81150;SDS011;70629;-26.026;27.976;2024-03-25T02:41:53;6.05;;;2.10;;
81150;SDS011;70629;-26.026;27.976;2024-03-25T02:42:32;4.50;;;2.03;;
81150;SDS011;70629;-26.026;27.976;2024-03-25T02:43:10;3.15;;;1.60;;
81150;SDS011;70629;-26.026;27.976;2024-03-25T02:43:49;4.38;;;2.10;;
81150;SDS011;70629;-26.026;27.976;2024-03-25T02:44:27;3.72;;;1.70;;
81150;SDS011;70629;-26.026;27.976;2024-03-25T02:45:06;4.70;;;1.83;;
81150;SDS011;70629;-26.026;27.976;2024-03-25T02:46:22;5.13;;;1.70;;
81150;SDS011;70629;-26.026;27.976;2024-03-25T02:47:01;4.32;;;1.63;;
81150;SDS011;70629;-26.026;27.976;2024-03-25T02:47:41;3.28;;;1.55;;
81150;SDS011;70629;-26.026;27.976;2024-03-25T02:48:20;5.05;;;1.83;;
81150;SDS011;70629;-26.026;27.976;2024-03-25T02:49:37;4.95;;;1.80;;
81150;SDS011;70629;-26.026;27.976;2024-03-25T02:50:16;4.93;;;1.60;;
81150;SDS011;70629;-26.026;27.976;2024-03-25T02:50:54;5.93;;;1.75;;
81150;SDS011;70629;-26.026;27.976;2024-03-25T02:51:33;5.22;;;1.45;;
81150;SDS011;70629;-26.026;27.976;2024-03-25T02:52:11;6.68;;;2.05;;
81150;SDS011;70629;-26.026;27.976;2024-03-25T02:52:50;2.78;;;1.30;;
81150;SDS011;70629;-26.026;27.976;2024-03-25T02:53:28;6.28;;;1.50;;
81150;SDS011;70629;-26.026;27.976;2024-03-25T02:54:06;5.38;;;1.52;;
81150;SDS011;70629;-26.026;27.976;2024-03-25T02:54:44;6.80;;;1.42;;
81150;SDS011;70629;-26.026;27.976;2024-03-25T02:55:23;5.47;;;1.50;;
81150;SDS011;70629;-26.026;27.976;2024-03-25T02:56:01;3.67;;;2.03;;
81150;SDS011;70629;-26.026;27.976;2024-03-25T02:56:40;4.80;;;1.67;;
81150;SDS011;70629;-26.026;27.976;2024-03-25T02:57:18;5.00;;;1.55;;
81150;SDS011;70629;-26.026;27.976;2024-03-25T02:57:56;4.68;;;1.45;;
81150;SDS011;70629;-26.026;27.976;2024-03-25T02:58:34;3.50;;;1.67;;
81150;SDS011;70629;-26.026;27.976;2024-03-25T02:59:50;4.75;;;1.65;;
81150;SDS011;70629;-26.026;27.976;2024-03-25T03:00:28;6.53;;;1.35;;
81150;SDS011;70629;-26.026;27.976;2024-03-25T03:01:07;4.93;;;1.85;;
81150;SDS011;70629;-26.026;27.976;2024-03-25T03:01:45;3.97;;;1.63;;
81150;SDS011;70629;-26.026;27.976;2024-03-25T03:02:23;5.15;;;1.65;;
81150;SDS011;70629;-26.026;27.976;2024-03-25T03:03:01;3.03;;;1.45;;
81150;SDS011;70629;-26.026;27.976;2024-03-25T03:03:39;5.05;;;1.55;;
81150;SDS011;70629;-26.026;27.976;2024-03-25T03:04:18;3.80;;;1.45;;
81150;SDS011;70629;-26.026;27.976;2024-03-25T03:04:57;2.92;;;1.20;;
81150;SDS011;70629;-26.026;27.976;2024-03-25T03:05:35;3.97;;;1.63;;
81150;SDS011;70629;-26.026;27.976;2024-03-25T03:06:13;4.95;;;1.50;;
81150;SDS011;70629;-26.026;27.976;2024-03-25T03:06:51;5.22;;;1.75;;
81150;SDS011;70629;-26.026;27.976;2024-03-25T03:07:29;4.13;;;1.63;;
81150;SDS011;70629;-26.026;27.976;2024-03-25T03:08:08;4.43;;;1.40;;
81150;SDS011;70629;-26.026;27.976;2024-03-25T03:08:46;4.95;;;1.60;;
81150;SDS011;70629;-26.026;27.976;2024-03-25T03:09:24;3.03;;;1.20;;
81150;SDS011;70629;-26.026;27.976;2024-03-25T03:10:02;3.92;;;1.30;;
81150;SDS011;70629;-26.026;27.976;2024-03-25T03:10:41;2.47;;;1.05;;
81150;SDS011;70629;-26.026;27.976;2024-03-25T03:11:19;3.20;;;1.25;;
81150;SDS011;70629;-26.026;27.976;2024-03-25T03:11:57;3.75;;;1.20;;
81150;SDS011;70629;-26.026;27.976;2024-03-25T03:12:35;2.80;;;1.15;;
81150;SDS011;70629;-26.026;27.976;2024-03-25T03:13:13;3.20;;;1.17;;
81150;SDS011;70629;-26.026;27.976;2024-03-25T03:13:51;4.00;;;1.10;;
81150;SDS011;70629;-26.026;27.976;2024-03-25T03:14:30;5.00;;;1.40;;
81150;SDS011;70629;-26.026;27.976;2024-03-25T03:15:08;5.22;;;1.52;;
81150;SDS011;70629;-26.026;27.976;2024-03-25T03:15:47;5.78;;;1.25;;
81150;SDS011;70629;-26.026;27.976;2024-03-25T03:16:25;2.67;;;1.25;;
81150;SDS011;70629;-26.026;27.976;2024-03-25T03:17:03;2.30;;;1.48;;
81150;SDS011;70629;-26.026;27.976;2024-03-25T03:17:42;3.95;;;1.05;;
81150;SDS011;70629;-26.026;27.976;2024-03-25T03:18:20;3.17;;;1.10;;
81150;SDS011;70629;-26.026;27.976;2024-03-25T03:18:58;3.20;;;1.20;;
81150;SDS011;70629;-26.026;27.976;2024-03-25T03:19:36;1.85;;;0.88;;
81150;SDS011;70629;-26.026;27.976;2024-03-25T03:20:15;4.80;;;1.10;;
81150;SDS011;70629;-26.026;27.976;2024-03-25T03:20:53;3.13;;;1.23;;
81150;SDS011;70629;-26.026;27.976;2024-03-25T03:21:34;2.53;;;0.95;;
81150;SDS011;70629;-26.026;27.976;2024-03-25T03:22:13;3.35;;;1.10;;
81150;SDS011;70629;-26.026;27.976;2024-03-25T03:22:52;2.90;;;1.10;;
81150;SDS011;70629;-26.026;27.976;2024-03-25T03:23:30;3.10;;;0.93;;
81150;SDS011;70629;-26.026;27.976;2024-03-25T03:24:08;3.85;;;1.02;;
81150;SDS011;70629;-26.026;27.976;2024-03-25T03:24:46;4.60;;;1.50;;
81150;SDS011;70629;-26.026;27.976;2024-03-25T03:25:25;3.47;;;1.25;;
81150;SDS011;70629;-26.026;27.976;2024-03-25T03:26:03;3.80;;;1.20;;
81150;SDS011;70629;-26.026;27.976;2024-03-25T03:26:42;5.05;;;1.10;;
81150;SDS011;70629;-26.026;27.976;2024-03-25T03:27:20;5.43;;;1.58;;
81150;SDS011;70629;-26.026;27.976;2024-03-25T03:27:58;3.50;;;1.25;;
81150;SDS011;70629;-26.026;27.976;2024-03-25T03:28:37;4.88;;;1.20;;
81150;SDS011;70629;-26.026;27.976;2024-03-25T03:29:15;2.78;;;1.30;;
81150;SDS011;70629;-26.026;27.976;2024-03-25T03:29:53;2.92;;;1.15;;
81150;SDS011;70629;-26.026;27.976;2024-03-25T03:30:31;3.05;;;1.00;;
81150;SDS011;70629;-26.026;27.976;2024-03-25T03:31:09;3.00;;;1.10;;
81150;SDS011;70629;-26.026;27.976;2024-03-25T03:31:47;2.30;;;1.00;;
81150;SDS011;70629;-26.026;27.976;2024-03-25T03:32:26;2.58;;;1.10;;
81150;SDS011;70629;-26.026;27.976;2024-03-25T03:33:04;3.42;;;0.90;;
81150;SDS011;70629;-26.026;27.976;2024-03-25T03:33:43;3.30;;;0.90;;
81150;SDS011;70629;-26.026;27.976;2024-03-25T03:34:21;3.47;;;1.10;;
81150;SDS011;70629;-26.026;27.976;2024-03-25T03:34:59;2.20;;;1.00;;
81150;SDS011;70629;-26.026;27.976;2024-03-25T03:35:37;3.03;;;1.10;;
81150;SDS011;70629;-26.026;27.976;2024-03-25T03:36:19;3.00;;;1.00;;
81150;SDS011;70629;-26.026;27.976;2024-03-25T03:36:57;3.92;;;0.95;;
81150;SDS011;70629;-26.026;27.976;2024-03-25T03:37:36;2.80;;;0.93;;
81150;SDS011;70629;-26.026;27.976;2024-03-25T03:38:14;3.35;;;1.20;;
81150;SDS011;70629;-26.026;27.976;2024-03-25T03:38:52;2.20;;;1.00;;
81150;SDS011;70629;-26.026;27.976;2024-03-25T03:40:09;2.55;;;0.93;;
81150;SDS011;70629;-26.026;27.976;2024-03-25T03:41:36;4.18;;;1.17;;
81150;SDS011;70629;-26.026;27.976;2024-03-25T03:42:14;2.60;;;1.10;;
81150;SDS011;70629;-26.026;27.976;2024-03-25T03:42:52;2.97;;;1.10;;
81150;SDS011;70629;-26.026;27.976;2024-03-25T03:43:31;2.97;;;1.10;;
81150;SDS011;70629;-26.026;27.976;2024-03-25T03:44:09;2.53;;;0.90;;
81150;SDS011;70629;-26.026;27.976;2024-03-25T03:44:47;3.40;;;1.08;;
81150;SDS011;70629;-26.026;27.976;2024-03-25T03:45:25;2.47;;;1.00;;
81150;SDS011;70629;-26.026;27.976;2024-03-25T03:46:04;3.15;;;0.88;;
81150;SDS011;70629;-26.026;27.976;2024-03-25T03:46:43;3.15;;;0.77;;
81150;SDS011;70629;-26.026;27.976;2024-03-25T03:47:21;1.77;;;0.80;;
81150;SDS011;70629;-26.026;27.976;2024-03-25T03:48:00;1.85;;;0.68;;
81150;SDS011;70629;-26.026;27.976;2024-03-25T03:48:39;1.73;;;0.73;;
81150;SDS011;70629;-26.026;27.976;2024-03-25T03:49:17;1.58;;;0.70;;
81150;SDS011;70629;-26.026;27.976;2024-03-25T03:49:55;2.85;;;0.88;;
81150;SDS011;70629;-26.026;27.976;2024-03-25T03:50:34;3.75;;;0.80;;
81150;SDS011;70629;-26.026;27.976;2024-03-25T03:51:13;3.20;;;0.85;;
81150;SDS011;70629;-26.026;27.976;2024-03-25T03:51:52;2.20;;;0.80;;
81150;SDS011;70629;-26.026;27.976;2024-03-25T03:52:30;1.90;;;0.80;;
81150;SDS011;70629;-26.026;27.976;2024-03-25T03:53:08;4.38;;;1.02;;
81150;SDS011;70629;-26.026;27.976;2024-03-25T03:53:47;5.38;;;1.17;;
81150;SDS011;70629;-26.026;27.976;2024-03-25T03:54:25;4.25;;;1.00;;
81150;SDS011;70629;-26.026;27.976;2024-03-25T03:55:03;2.70;;;0.82;;